AFR520 EKCH-LFPG
Flight info
| Callsign | AFR520 |
|---|---|
| Flight time | N/A |
| Altitude | 36000 |
| Route | NEXEN T503 GIMRU DCT MICOS DCT NVO DCT IDOSA UN857 TOLVU/N0470F370 DCT RAPOR DCT VEDUS |
| Aircraft | B77W/H-SDE1E2E3FGHIJ2J3J4J5M1RWXY/LB1D1 |
Departure
| Time | N/A |
|---|---|
| Airport | Copenhagen Kastrup Airport (EKCH) |
Arrival
| Time | 2026-05-08 20:14 |
|---|---|
| Airport | Charles de Gaulle International Airport (LFPG) |
| Time | Latitude | Longitude | Altitude | Speed | Heading |
|---|---|---|---|---|---|
| 2026-05-08 19:23 | 51.19566 | 7.06376 | 37108 ft | 472 kts | 218° |
| 2026-05-08 19:23 | 51.16876 | 7.03267 | 37107 ft | 472 kts | 218° |
| 2026-05-08 19:24 | 51.11588 | 6.97170 | 37105 ft | 472 kts | 218° |
| 2026-05-08 19:24 | 51.06265 | 6.91046 | 37109 ft | 472 kts | 218° |
| 2026-05-08 19:25 | 51.00928 | 6.84928 | 37102 ft | 472 kts | 218° |
| 2026-05-08 19:25 | 50.95603 | 6.78839 | 37103 ft | 472 kts | 217° |
| 2026-05-08 19:26 | 50.90266 | 6.72753 | 37101 ft | 472 kts | 217° |
| 2026-05-08 19:26 | 50.84934 | 6.66689 | 37099 ft | 472 kts | 217° |
| 2026-05-08 19:27 | 50.79288 | 6.61350 | 37100 ft | 475 kts | 207° |
| 2026-05-08 19:27 | 50.73271 | 6.57043 | 37101 ft | 475 kts | 206° |
| 2026-05-08 19:28 | 50.67272 | 6.52790 | 37107 ft | 475 kts | 206° |
| 2026-05-08 19:28 | 50.61252 | 6.48479 | 37104 ft | 475 kts | 206° |
| 2026-05-08 19:29 | 50.55233 | 6.44150 | 37125 ft | 475 kts | 206° |
| 2026-05-08 19:29 | 50.49204 | 6.39820 | 37118 ft | 475 kts | 206° |
| 2026-05-08 19:30 | 50.43186 | 6.35514 | 37104 ft | 475 kts | 206° |
| 2026-05-08 19:30 | 50.37159 | 6.31213 | 37098 ft | 476 kts | 206° |
| 2026-05-08 19:31 | 50.31169 | 6.26951 | 37114 ft | 476 kts | 206° |
| 2026-05-08 19:31 | 50.25140 | 6.22674 | 37117 ft | 476 kts | 206° |
| 2026-05-08 19:32 | 50.19098 | 6.18402 | 37103 ft | 476 kts | 206° |
| 2026-05-08 19:32 | 50.13053 | 6.14137 | 37085 ft | 477 kts | 206° |
| 2026-05-08 19:33 | 50.07003 | 6.09880 | 37089 ft | 477 kts | 206° |
| 2026-05-08 19:33 | 50.00959 | 6.05639 | 37091 ft | 477 kts | 206° |
| 2026-05-08 19:34 | 49.94910 | 6.01405 | 37088 ft | 477 kts | 206° |
| 2026-05-08 19:34 | 49.88903 | 5.97214 | 37096 ft | 476 kts | 206° |
| 2026-05-08 19:35 | 49.82862 | 5.93008 | 37091 ft | 476 kts | 206° |
| 2026-05-08 19:35 | 49.76934 | 5.88517 | 37086 ft | 470 kts | 218° |
| 2026-05-08 19:35 | 49.74550 | 5.85121 | 37096 ft | 465 kts | 232° |
| 2026-05-08 19:36 | 49.72737 | 5.81012 | 37093 ft | 462 kts | 245° |
| 2026-05-08 19:36 | 49.70531 | 5.71755 | 37093 ft | 460 kts | 253° |
| 2026-05-08 19:37 | 49.68432 | 5.62388 | 37088 ft | 463 kts | 252° |
| 2026-05-08 19:37 | 49.66259 | 5.53073 | 36915 ft | 456 kts | 252° |
| 2026-05-08 19:37 | 49.65173 | 5.48485 | 36405 ft | 455 kts | 252° |
| 2026-05-08 19:38 | 49.64091 | 5.43913 | 35783 ft | 453 kts | 252° |
| 2026-05-08 19:38 | 49.63020 | 5.39399 | 35164 ft | 452 kts | 253° |
| 2026-05-08 19:38 | 49.61947 | 5.34800 | 34643 ft | 448 kts | 254° |
| 2026-05-08 19:38 | 49.60984 | 5.30313 | 34124 ft | 445 kts | 256° |
| 2026-05-08 19:39 | 49.60108 | 5.25768 | 33521 ft | 440 kts | 260° |
| 2026-05-08 19:39 | 49.59544 | 5.21168 | 32978 ft | 434 kts | 265° |
| 2026-05-08 19:39 | 49.59203 | 5.16580 | 32463 ft | 428 kts | 269° |
| 2026-05-08 19:39 | 49.59124 | 5.12027 | 31938 ft | 422 kts | 274° |
| 2026-05-08 19:40 | 49.59176 | 5.07521 | 31454 ft | 419 kts | 275° |
| 2026-05-08 19:40 | 49.59244 | 5.03054 | 30943 ft | 416 kts | 275° |
| 2026-05-08 19:40 | 49.59307 | 4.98617 | 30447 ft | 413 kts | 275° |
| 2026-05-08 19:40 | 49.59360 | 4.94207 | 29924 ft | 411 kts | 275° |
| 2026-05-08 19:41 | 49.59404 | 4.89811 | 29361 ft | 408 kts | 274° |
| 2026-05-08 19:41 | 49.59442 | 4.85461 | 28858 ft | 405 kts | 274° |
| 2026-05-08 19:41 | 49.59477 | 4.81135 | 28352 ft | 402 kts | 274° |
| 2026-05-08 19:41 | 49.59508 | 4.76852 | 27874 ft | 399 kts | 274° |
| 2026-05-08 19:42 | 49.59532 | 4.72588 | 27468 ft | 397 kts | 274° |
| 2026-05-08 19:42 | 49.59552 | 4.68309 | 27045 ft | 400 kts | 273° |
| 2026-05-08 19:42 | 49.59570 | 4.64002 | 26641 ft | 403 kts | 273° |
| 2026-05-08 19:42 | 49.59587 | 4.59684 | 26209 ft | 402 kts | 273° |
| 2026-05-08 19:43 | 49.59601 | 4.55386 | 25789 ft | 401 kts | 273° |
| 2026-05-08 19:43 | 49.59614 | 4.51103 | 25373 ft | 399 kts | 272° |
| 2026-05-08 19:43 | 49.59625 | 4.46831 | 24949 ft | 398 kts | 272° |
| 2026-05-08 19:43 | 49.59636 | 4.42571 | 24549 ft | 397 kts | 272° |
| 2026-05-08 19:44 | 49.59646 | 4.38325 | 24141 ft | 396 kts | 272° |
| 2026-05-08 19:44 | 49.59654 | 4.34095 | 23730 ft | 395 kts | 271° |
| 2026-05-08 19:44 | 49.59660 | 4.29863 | 23253 ft | 394 kts | 271° |
| 2026-05-08 19:44 | 49.59664 | 4.25648 | 22801 ft | 392 kts | 271° |
| 2026-05-08 19:45 | 49.59667 | 4.21467 | 22381 ft | 388 kts | 271° |
| 2026-05-08 19:45 | 49.59670 | 4.17376 | 21973 ft | 383 kts | 271° |
| 2026-05-08 19:45 | 49.59670 | 4.13297 | 21583 ft | 378 kts | 271° |
| 2026-05-08 19:45 | 49.59650 | 4.09261 | 21163 ft | 370 kts | 267° |
| 2026-05-08 19:46 | 49.59096 | 4.05405 | 20783 ft | 369 kts | 247° |
| 2026-05-08 19:46 | 49.57812 | 4.01996 | 20436 ft | 369 kts | 237° |
| 2026-05-08 19:46 | 49.54944 | 3.95385 | 19901 ft | 374 kts | 237° |
| 2026-05-08 19:47 | 49.53515 | 3.92065 | 19876 ft | 370 kts | 237° |
| 2026-05-08 19:47 | 49.52111 | 3.88770 | 19826 ft | 367 kts | 237° |
| 2026-05-08 19:47 | 49.50724 | 3.85493 | 19741 ft | 365 kts | 238° |
| 2026-05-08 19:47 | 49.49341 | 3.82220 | 19582 ft | 365 kts | 238° |
| 2026-05-08 19:48 | 49.47958 | 3.78941 | 19457 ft | 364 kts | 239° |
| 2026-05-08 19:48 | 49.46924 | 3.75436 | 19229 ft | 362 kts | 256° |
| 2026-05-08 19:48 | 49.46362 | 3.71660 | 19069 ft | 362 kts | 258° |
| 2026-05-08 19:48 | 49.45790 | 3.67902 | 18813 ft | 361 kts | 256° |
| 2026-05-08 19:49 | 49.45180 | 3.64165 | 18416 ft | 361 kts | 255° |
| 2026-05-08 19:49 | 49.44532 | 3.60329 | 18360 ft | 379 kts | 255° |
| 2026-05-08 19:49 | 49.43868 | 3.56439 | 18274 ft | 372 kts | 255° |
| 2026-05-08 19:49 | 49.43223 | 3.52650 | 17907 ft | 362 kts | 255° |
| 2026-05-08 19:50 | 49.42594 | 3.48959 | 17358 ft | 351 kts | 255° |
| 2026-05-08 19:50 | 49.41982 | 3.45389 | 16809 ft | 341 kts | 254° |
| 2026-05-08 19:50 | 49.41241 | 3.41972 | 16306 ft | 334 kts | 248° |
| 2026-05-08 19:50 | 49.40366 | 3.38689 | 15808 ft | 331 kts | 246° |
| 2026-05-08 19:51 | 49.39437 | 3.35364 | 15344 ft | 344 kts | 246° |
| 2026-05-08 19:51 | 49.38491 | 3.31978 | 14855 ft | 346 kts | 246° |
| 2026-05-08 19:51 | 49.37553 | 3.28594 | 14367 ft | 339 kts | 246° |
| 2026-05-08 19:51 | 49.36657 | 3.25320 | 13860 ft | 326 kts | 247° |
| 2026-05-08 19:52 | 49.35808 | 3.22202 | 13329 ft | 316 kts | 247° |
| 2026-05-08 19:52 | 49.34973 | 3.19121 | 12812 ft | 313 kts | 247° |
| 2026-05-08 19:52 | 49.34133 | 3.16022 | 12733 ft | 316 kts | 247° |
| 2026-05-08 19:52 | 49.33278 | 3.12869 | 12731 ft | 323 kts | 247° |
| 2026-05-08 19:53 | 49.32411 | 3.09669 | 12688 ft | 327 kts | 247° |
| 2026-05-08 19:53 | 49.31533 | 3.06416 | 12452 ft | 330 kts | 247° |
| 2026-05-08 19:53 | 49.30657 | 3.03179 | 12231 ft | 327 kts | 247° |
| 2026-05-08 19:53 | 49.29798 | 3.00025 | 12015 ft | 322 kts | 247° |
| 2026-05-08 19:54 | 49.28939 | 2.96874 | 11803 ft | 318 kts | 247° |
| 2026-05-08 19:54 | 49.28095 | 2.93764 | 11600 ft | 316 kts | 247° |
| 2026-05-08 19:54 | 49.27250 | 2.90659 | 11391 ft | 315 kts | 247° |
| 2026-05-08 19:54 | 49.26409 | 2.87573 | 11213 ft | 314 kts | 247° |
| 2026-05-08 19:55 | 49.25566 | 2.84491 | 11127 ft | 314 kts | 247° |
| 2026-05-08 19:55 | 49.24718 | 2.81393 | 11095 ft | 316 kts | 247° |
| 2026-05-08 19:55 | 49.23884 | 2.78348 | 11062 ft | 303 kts | 247° |
| 2026-05-08 19:55 | 49.23088 | 2.75444 | 11061 ft | 287 kts | 247° |
| 2026-05-08 19:56 | 49.22330 | 2.72687 | 11063 ft | 275 kts | 247° |
| 2026-05-08 19:56 | 49.21589 | 2.69993 | 11060 ft | 275 kts | 247° |
| 2026-05-08 19:56 | 49.20851 | 2.67305 | 11068 ft | 273 kts | 247° |
| 2026-05-08 19:56 | 49.20116 | 2.64629 | 11061 ft | 273 kts | 247° |
| 2026-05-08 19:57 | 49.19378 | 2.61958 | 11068 ft | 272 kts | 247° |
| 2026-05-08 19:57 | 49.18641 | 2.59293 | 11043 ft | 271 kts | 247° |
| 2026-05-08 19:57 | 49.18037 | 2.56574 | 10668 ft | 274 kts | 262° |
| 2026-05-08 19:57 | 49.17961 | 2.53616 | 10351 ft | 281 kts | 269° |
| 2026-05-08 19:58 | 49.17932 | 2.50658 | 10000 ft | 284 kts | 269° |
| 2026-05-08 19:58 | 49.17888 | 2.47643 | 9605 ft | 284 kts | 268° |
| 2026-05-08 19:58 | 49.17830 | 2.44619 | 9225 ft | 284 kts | 268° |
| 2026-05-08 19:58 | 49.17616 | 2.41643 | 8804 ft | 282 kts | 256° |
| 2026-05-08 19:59 | 49.17281 | 2.39724 | 8557 ft | 282 kts | 253° |
| 2026-05-08 19:59 | 49.16702 | 2.36854 | 8184 ft | 283 kts | 252° |
| 2026-05-08 19:59 | 49.16114 | 2.34021 | 8072 ft | 280 kts | 251° |
| 2026-05-08 19:59 | 49.15516 | 2.31162 | 8059 ft | 282 kts | 252° |
| 2026-05-08 20:00 | 49.14921 | 2.28315 | 8054 ft | 281 kts | 252° |
| 2026-05-08 20:00 | 49.14325 | 2.25478 | 8050 ft | 281 kts | 252° |
| 2026-05-08 20:00 | 49.13724 | 2.22638 | 8044 ft | 280 kts | 252° |
| 2026-05-08 20:00 | 49.13127 | 2.19812 | 8053 ft | 279 kts | 252° |
| 2026-05-08 20:01 | 49.12532 | 2.17002 | 8044 ft | 279 kts | 252° |
| 2026-05-08 20:01 | 49.11932 | 2.14176 | 8055 ft | 280 kts | 252° |
| 2026-05-08 20:01 | 49.11330 | 2.11342 | 8048 ft | 280 kts | 252° |
| 2026-05-08 20:01 | 49.10730 | 2.08520 | 8055 ft | 279 kts | 252° |
| 2026-05-08 20:02 | 49.10131 | 2.05710 | 8042 ft | 277 kts | 252° |
| 2026-05-08 20:02 | 49.09564 | 2.03039 | 8010 ft | 257 kts | 252° |
| 2026-05-08 20:02 | 49.09024 | 2.00497 | 8044 ft | 248 kts | 252° |
| 2026-05-08 20:02 | 49.08483 | 1.97973 | 8041 ft | 247 kts | 251° |
| 2026-05-08 20:03 | 49.07957 | 1.95516 | 8019 ft | 248 kts | 251° |
| 2026-05-08 20:03 | 49.07250 | 1.93105 | 7693 ft | 254 kts | 231° |
| 2026-05-08 20:03 | 49.05861 | 1.91425 | 7307 ft | 260 kts | 202° |
| 2026-05-08 20:03 | 49.04147 | 1.90867 | 7053 ft | 243 kts | 184° |
| 2026-05-08 20:04 | 49.02454 | 1.90731 | 7084 ft | 246 kts | 182° |
| 2026-05-08 20:04 | 49.00742 | 1.90643 | 6969 ft | 246 kts | 182° |
| 2026-05-08 20:04 | 48.99039 | 1.90748 | 6674 ft | 245 kts | 166° |
| 2026-05-08 20:04 | 48.97573 | 1.91972 | 6267 ft | 241 kts | 135° |
| 2026-05-08 20:05 | 48.96688 | 1.94094 | 5872 ft | 236 kts | 115° |
| 2026-05-08 20:05 | 48.96171 | 1.96431 | 5429 ft | 233 kts | 97° |
| 2026-05-08 20:05 | 48.96212 | 1.98866 | 5060 ft | 229 kts | 86° |
| 2026-05-08 20:05 | 48.96350 | 2.01252 | 4999 ft | 222 kts | 84° |
| 2026-05-08 20:06 | 48.96484 | 2.03610 | 4985 ft | 227 kts | 85° |
| 2026-05-08 20:06 | 48.96621 | 2.06038 | 4987 ft | 234 kts | 85° |
| 2026-05-08 20:06 | 48.96756 | 2.08514 | 4978 ft | 235 kts | 86° |
| 2026-05-08 20:06 | 48.96887 | 2.10969 | 4968 ft | 231 kts | 85° |
| 2026-05-08 20:07 | 48.97016 | 2.13401 | 4961 ft | 229 kts | 85° |
| 2026-05-08 20:07 | 48.97141 | 2.15767 | 4951 ft | 218 kts | 85° |
| 2026-05-08 20:07 | 48.97258 | 2.17969 | 4945 ft | 205 kts | 86° |
| 2026-05-08 20:07 | 48.97367 | 2.20070 | 4978 ft | 187 kts | 85° |
| 2026-05-08 20:08 | 48.97475 | 2.22102 | 4753 ft | 199 kts | 85° |
| 2026-05-08 20:08 | 48.97583 | 2.24166 | 4478 ft | 191 kts | 85° |
| 2026-05-08 20:08 | 48.97688 | 2.26133 | 4254 ft | 184 kts | 85° |
| 2026-05-08 20:08 | 48.97789 | 2.28073 | 4021 ft | 184 kts | 85° |
| 2026-05-08 20:09 | 48.97854 | 2.29299 | 3871 ft | 185 kts | 85° |
| 2026-05-08 20:09 | 48.97959 | 2.31248 | 3628 ft | 185 kts | 85° |
| 2026-05-08 20:09 | 48.98060 | 2.33187 | 3375 ft | 182 kts | 85° |
| 2026-05-08 20:09 | 48.98164 | 2.35079 | 3137 ft | 176 kts | 84° |
| 2026-05-08 20:10 | 48.98258 | 2.36901 | 2921 ft | 169 kts | 85° |
| 2026-05-08 20:10 | 48.98347 | 2.38673 | 2667 ft | 165 kts | 84° |
| 2026-05-08 20:10 | 48.98439 | 2.40366 | 2493 ft | 156 kts | 83° |
| 2026-05-08 20:10 | 48.98527 | 2.42012 | 2254 ft | 153 kts | 84° |
| 2026-05-08 20:11 | 48.98606 | 2.43583 | 2082 ft | 147 kts | 84° |
| 2026-05-08 20:11 | 48.98686 | 2.45073 | 1890 ft | 135 kts | 83° |
| 2026-05-08 20:11 | 48.98764 | 2.46525 | 1666 ft | 135 kts | 82° |
| 2026-05-08 20:11 | 48.98851 | 2.47929 | 1506 ft | 133 kts | 84° |
| 2026-05-08 20:12 | 48.98911 | 2.49358 | 1368 ft | 137 kts | 84° |
| 2026-05-08 20:12 | 48.98983 | 2.50824 | 1115 ft | 139 kts | 83° |
| 2026-05-08 20:12 | 48.99061 | 2.52274 | 1000 ft | 142 kts | 82° |
| 2026-05-08 20:12 | 48.99147 | 2.53785 | 773 ft | 143 kts | 84° |
| 2026-05-08 20:13 | 48.99220 | 2.55285 | 554 ft | 138 kts | 82° |
| 2026-05-08 20:13 | 48.99302 | 2.56750 | 377 ft | 141 kts | 82° |
| 2026-05-08 20:13 | 48.99380 | 2.58129 | 358 ft | 115 kts | 86° |
| 2026-05-08 20:13 | 48.99427 | 2.59065 | 365 ft | 62 kts | 86° |
| 2026-05-08 20:14 | 48.99455 | 2.59614 | 357 ft | 49 kts | 85° |
| 2026-05-08 20:14 | 48.99482 | 2.59865 | 364 ft | 13 kts | 60° |
| 2026-05-08 20:14 | 48.99550 | 2.59956 | 364 ft | 13 kts | 27° |
| 2026-05-08 20:14 | 48.99640 | 2.59979 | 363 ft | 14 kts | 355° |
| 2026-05-08 20:15 | 48.99736 | 2.59968 | 364 ft | 14 kts | 355° |
| 2026-05-08 20:15 | 48.99840 | 2.59963 | 365 ft | 16 kts | 7° |
| 2026-05-08 20:15 | 48.99933 | 2.60049 | 366 ft | 16 kts | 31° |
| 2026-05-08 20:15 | 49.00035 | 2.60035 | 364 ft | 16 kts | 319° |
| 2026-05-08 20:16 | 49.00118 | 2.59988 | 364 ft | 0 kts | 359° |
| 2026-05-08 20:16 | 49.00142 | 2.59988 | 364 ft | 6 kts | 359° |
| 2026-05-08 20:16 | 49.00189 | 2.59965 | 368 ft | 9 kts | 320° |
| 2026-05-08 20:17 | 49.00201 | 2.59869 | 364 ft | 11 kts | 263° |
| 2026-05-08 20:17 | 49.00189 | 2.59740 | 365 ft | 13 kts | 262° |
| 2026-05-08 20:17 | 49.00179 | 2.59600 | 359 ft | 14 kts | 265° |
| 2026-05-08 20:17 | 49.00122 | 2.59503 | 366 ft | 14 kts | 194° |
| 2026-05-08 20:18 | 49.00071 | 2.59383 | 366 ft | 14 kts | 261° |
| 2026-05-08 20:18 | 49.00062 | 2.59228 | 365 ft | 15 kts | 266° |
| 2026-05-08 20:18 | 49.00055 | 2.59068 | 362 ft | 15 kts | 265° |
| 2026-05-08 20:18 | 49.00046 | 2.58909 | 365 ft | 15 kts | 265° |
| 2026-05-08 20:19 | 49.00037 | 2.58751 | 359 ft | 15 kts | 265° |
| 2026-05-08 20:19 | 49.00028 | 2.58592 | 359 ft | 15 kts | 265° |
| 2026-05-08 20:19 | 49.00018 | 2.58432 | 362 ft | 15 kts | 265° |
| 2026-05-08 20:19 | 49.00010 | 2.58273 | 363 ft | 15 kts | 266° |
| 2026-05-08 20:20 | 49.00002 | 2.58113 | 366 ft | 15 kts | 265° |
| 2026-05-08 20:20 | 48.99993 | 2.57954 | 364 ft | 15 kts | 265° |
| 2026-05-08 20:20 | 48.99992 | 2.57928 | 364 ft | 1 kts | 265° |
| 2026-05-08 20:20 | 48.99991 | 2.57919 | 365 ft | 2 kts | 265° |
| 2026-05-08 20:21 | 48.99988 | 2.57860 | 367 ft | 7 kts | 265° |
| 2026-05-08 20:21 | 48.99995 | 2.57773 | 368 ft | 9 kts | 298° |
| 2026-05-08 20:21 | 49.00049 | 2.57733 | 363 ft | 9 kts | 349° |
| 2026-05-08 20:21 | 49.00073 | 2.57731 | 362 ft | 4 kts | 358° |
| 2026-05-08 20:22 | 49.00104 | 2.57729 | 363 ft | 5 kts | 356° |
| 2026-05-08 20:22 | 49.00116 | 2.57728 | 364 ft | 1 kts | 357° |
| 2026-05-08 20:22 | 49.00129 | 2.57727 | 364 ft | 3 kts | 357° |
| 2026-05-08 20:22 | 49.00130 | 2.57727 | 364 ft | 0 kts | 357° |